Time;durP1;ratioP1;P1;durP2;ratioP2;P2;SDS_P1;SDS_P2;PMS_P1;PMS_P2;Temp;Humidity;BMP_temperature;BMP_pressure;BME280_temperature;BME280_humidity;BME280_pressure;Samples;Min_cycle;Max_cycle;Signal;HPM_P1;HPM_P2
2020/12/31 00:02:08;;;;;;;4.72;2.80;;;;;;;2.19;67.01;94491.03;4993939;28;20380;-71
2020/12/31 00:04:33;;;;;;;3.50;2.45;;;;;;;2.10;68.03;94501.31;4992219;28;20041;-70
2020/12/31 00:06:58;;;;;;;3.20;2.90;;;;;;;1.95;68.94;94501.34;4992278;28;20677;-70
2020/12/31 00:09:24;;;;;;;3.30;2.78;;;;;;;2.03;68.52;94491.09;4991834;28;20046;-69
2020/12/31 00:11:50;;;;;;;5.88;3.22;;;;;;;1.98;68.53;94488.47;4991575;28;20049;-70
2020/12/31 00:14:15;;;;;;;3.28;2.97;;;;;;;1.97;68.96;94500.00;4993809;28;20026;-70
2020/12/31 00:16:40;;;;;;;3.40;2.90;;;;;;;2.03;68.76;94498.16;4991829;28;20047;-70
2020/12/31 00:19:05;;;;;;;3.33;3.03;;;;;;;2.24;68.60;94518.06;4991200;28;20038;-70
2020/12/31 00:21:31;;;;;;;3.13;2.90;;;;;;;2.23;68.49;94513.06;4991464;28;20373;-69
2020/12/31 00:23:56;;;;;;;2.53;2.33;;;;;;;2.36;67.95;94488.91;4991920;28;20042;-70
2020/12/31 00:26:22;;;;;;;3.40;2.90;;;;;;;2.59;67.23;94511.91;4991969;28;20038;-69
2020/12/31 00:28:47;;;;;;;2.78;2.50;;;;;;;2.24;67.57;94475.28;5008312;28;20026;-70
2020/12/31 00:31:12;;;;;;;2.72;2.53;;;;;;;2.19;68.35;94478.72;5006174;28;20050;-71
2020/12/31 00:33:38;;;;;;;3.65;3.15;;;;;;;2.47;66.99;94502.78;4990001;28;20492;-69
2020/12/31 00:36:03;;;;;;;4.10;2.72;;;;;;;2.18;67.78;94497.34;4991592;28;20137;-70
2020/12/31 00:38:28;;;;;;;2.97;2.60;;;;;;;2.01;68.72;94514.19;4991264;28;20469;-69
2020/12/31 00:40:54;;;;;;;3.70;2.97;;;;;;;1.94;68.44;94487.41;4993285;28;20456;-71
2020/12/31 00:43:22;;;;;;;3.38;3.08;;;;;;;1.51;69.58;94484.34;4991209;28;20043;-69
2020/12/31 00:45:48;;;;;;;5.30;3.05;;;;;;;2.04;68.92;94511.00;4991483;28;20400;-72
2020/12/31 00:48:13;;;;;;;3.33;3.13;;;;;;;1.78;69.62;94514.72;4990814;28;20045;-70
2020/12/31 00:50:39;;;;;;;3.60;3.10;;;;;;;1.81;68.78;94474.88;4991100;28;20044;-70
2020/12/31 00:53:04;;;;;;;3.28;2.97;;;;;;;1.85;69.27;94512.63;4992992;28;20512;-70
2020/12/31 00:55:30;;;;;;;3.60;3.30;;;;;;;1.77;68.82;94494.78;4991119;28;20046;-70
2020/12/31 00:57:55;;;;;;;3.75;3.40;;;;;;;1.74;69.07;94490.88;4990949;28;20120;-71
2020/12/31 01:00:20;;;;;;;3.47;3.17;;;;;;;2.06;68.07;94503.69;4989366;28;20056;-69
2020/12/31 01:02:46;;;;;;;3.30;3.00;;;;;;;1.76;69.11;94499.25;4991017;28;20038;-71
2020/12/31 01:05:11;;;;;;;3.55;3.25;;;;;;;1.85;69.28;94511.84;4992827;28;20113;-70
2020/12/31 01:07:37;;;;;;;3.22;3.00;;;;;;;1.86;69.44;94508.16;4991093;28;20046;-70
2020/12/31 01:10:07;;;;;;;3.45;3.15;;;;;;;1.66;69.89;94511.59;4990801;28;20046;-70
2020/12/31 01:12:33;;;;;;;3.17;2.92;;;;;;;1.74;69.73;94519.72;4990628;28;20045;-71
2020/12/31 01:14:58;;;;;;;4.30;3.25;;;;;;;1.93;69.35;94519.16;4989424;28;20038;-72
2020/12/31 01:17:25;;;;;;;5.18;4.57;;;;;;;1.74;69.71;94490.06;4990742;28;20034;-70
2020/12/31 01:19:51;;;;;;;5.50;4.78;;;;;;;1.78;69.91;94515.50;4992250;28;20491;-71
2020/12/31 01:22:16;;;;;;;4.55;4.07;;;;;;;1.98;68.81;94506.81;4989097;28;20034;-70
2020/12/31 01:24:41;;;;;;;3.88;3.58;;;;;;;1.96;68.67;94503.69;4990266;28;20063;-70
2020/12/31 01:27:06;;;;;;;4.05;3.72;;;;;;;1.85;69.06;94510.00;4988895;28;20104;-69
2020/12/31 01:29:32;;;;;;;3.78;3.47;;;;;;;1.82;69.85;94513.16;4989690;28;20468;-70
2020/12/31 01:31:57;;;;;;;4.10;3.80;;;;;;;1.97;68.95;94504.47;4991320;28;20030;-71
2020/12/31 01:34:22;;;;;;;4.00;3.60;;;;;;;1.96;68.62;94503.69;5005536;28;20104;-70
2020/12/31 01:36:52;;;;;;;3.88;3.58;;;;;;;1.98;68.63;94519.16;4989208;28;20042;-71
2020/12/31 01:39:18;;;;;;;4.57;3.75;;;;;;;1.78;69.28;94504.22;4988707;28;20443;-70
2020/12/31 01:41:43;;;;;;;5.15;4.03;;;;;;;2.01;68.53;94503.69;4989973;28;20441;-70
2020/12/31 01:44:11;;;;;;;4.32;3.92;;;;;;;1.86;69.58;94510.78;5007006;28;20029;-70
2020/12/31 01:46:38;;;;;;;4.00;3.70;;;;;;;1.62;70.06;94498.22;4990360;28;20099;-72
2020/12/31 01:49:06;;;;;;;4.00;3.70;;;;;;;1.74;69.83;94506.63;5005080;28;20089;-69
2020/12/31 01:51:36;;;;;;;4.80;3.90;;;;;;;1.88;69.20;94501.59;4989557;28;20054;-70
2020/12/31 01:54:03;;;;;;;4.20;3.80;;;;;;;1.91;68.98;94498.47;5004983;28;20050;-72
2020/12/31 01:56:32;;;;;;;4.57;4.18;;;;;;;1.67;69.98;94498.22;4988622;28;20026;-70
2020/12/31 01:58:57;;;;;;;4.45;4.05;;;;;;;1.70;69.74;94507.41;5006738;28;20038;-71
2020/12/31 02:01:24;;;;;;;4.57;4.18;;;;;;;1.52;69.86;94485.13;4989701;28;20050;-70
2020/12/31 02:03:51;;;;;;;4.32;3.90;;;;;;;1.62;69.43;94489.56;4990004;28;20043;-71
2020/12/31 02:06:17;;;;;;;4.53;4.13;;;;;;;1.16;71.12;94486.94;4989853;28;20047;-70
2020/12/31 02:08:46;;;;;;;4.70;4.20;;;;;;;1.14;70.77;94481.19;4989551;28;20488;-69
2020/12/31 02:11:16;;;;;;;4.50;4.10;;;;;;;1.12;70.85;94486.66;4991370;28;20380;-69
2020/12/31 02:13:42;;;;;;;5.10;4.60;;;;;;;1.28;70.72;94495.34;4989932;28;20108;-70
2020/12/31 02:16:18;;;;;;;4.85;4.45;;;;;;;0.94;71.85;94487.97;4989784;28;20046;-71
2020/12/31 02:18:55;;;;;;;4.57;4.15;;;;;;;1.11;71.40;94494.78;4988027;28;20172;-71
2020/12/31 02:21:35;;;;;;;4.65;4.18;;;;;;;1.02;71.60;94492.69;5004375;28;20576;-70
2020/12/31 02:24:06;;;;;;;5.63;5.13;;;;;;;0.99;71.97;94495.03;4989664;28;20034;-70
2020/12/31 02:26:33;;;;;;;5.22;4.72;;;;;;;0.75;72.45;94471.94;4988257;28;20023;-70
2020/12/31 02:29:00;;;;;;;4.80;4.40;;;;;;;0.96;71.61;94492.94;5006052;28;20028;-70
2020/12/31 02:31:27;;;;;;;5.57;5.07;;;;;;;0.93;72.03;94485.59;4987840;28;20045;-70
2020/12/31 02:33:55;;;;;;;5.38;4.72;;;;;;;0.84;72.16;94487.16;4989317;28;20034;-70
2020/12/31 02:36:26;;;;;;;5.57;4.90;;;;;;;0.76;72.68;94493.66;4988188;28;20034;-70
2020/12/31 02:38:52;;;;;;;5.10;4.60;;;;;;;0.76;71.59;94477.97;4989410;28;20648;-71
2020/12/31 02:41:18;;;;;;;5.75;5.13;;;;;;;0.83;71.67;94472.50;4991153;28;20097;-70
2020/12/31 02:43:44;;;;;;;7.15;5.18;;;;;;;0.77;71.75;94474.31;4992473;28;20034;-71
2020/12/31 02:46:13;;;;;;;5.93;4.88;;;;;;;0.83;71.58;94467.25;4993440;28;20052;-70
2020/12/31 02:48:39;;;;;;;5.72;5.13;;;;;;;0.80;71.35;94462.53;4992899;28;20062;-71
2020/12/31 02:51:05;;;;;;;5.68;4.68;;;;;;;0.90;71.31;94475.63;4993246;28;20042;-72
2020/12/31 02:53:30;;;;;;;6.32;5.50;;;;;;;0.86;70.75;94472.75;4993170;28;20030;-70
2020/12/31 02:55:56;;;;;;;6.80;6.15;;;;;;;0.89;70.56;94482.72;4995326;28;20030;-70
2020/12/31 02:58:21;;;;;;;8.30;6.15;;;;;;;0.84;70.61;94474.84;4993038;28;20045;-70
2020/12/31 03:00:46;;;;;;;7.20;5.78;;;;;;;0.79;70.70;94472.22;4992788;28;20045;-71
2020/12/31 03:03:12;;;;;;;6.40;5.80;;;;;;;0.86;70.80;94482.44;4992687;28;20061;-70
2020/12/31 03:05:37;;;;;;;8.40;6.80;;;;;;;0.85;71.03;94484.25;4993107;28;20106;-70
2020/12/31 03:08:04;;;;;;;6.97;6.28;;;;;;;0.79;71.24;94474.84;4995230;28;20641;-70
2020/12/31 03:10:29;;;;;;;7.22;6.53;;;;;;;0.74;71.33;94467.75;4992752;28;20049;-69
2020/12/31 03:12:54;;;;;;;8.15;7.05;;;;;;;0.86;71.05;94474.56;4991589;28;20141;-70
2020/12/31 03:15:21;;;;;;;7.85;6.75;;;;;;;0.87;71.15;94486.63;4992957;28;20044;-70
2020/12/31 03:17:47;;;;;;;7.35;6.22;;;;;;;0.76;71.31;94465.66;4993058;28;20030;-70
2020/12/31 03:20:12;;;;;;;6.55;5.93;;;;;;;0.95;70.92;94470.41;4994535;28;20053;-70
2020/12/31 03:22:38;;;;;;;6.75;6.05;;;;;;;1.07;70.78;94488.50;4992000;28;20046;-71
2020/12/31 03:25:03;;;;;;;7.35;5.78;;;;;;;1.03;70.36;94485.63;4992168;28;20113;-70
2020/12/31 03:27:29;;;;;;;6.53;5.85;;;;;;;0.98;70.38;94489.00;4992828;28;20042;-70
2020/12/31 03:29:54;;;;;;;7.80;6.53;;;;;;;0.76;70.40;94465.66;4992635;28;20085;-69
2020/12/31 03:32:20;;;;;;;6.50;5.68;;;;;;;0.73;70.28;94478.50;4993046;28;20049;-71
2020/12/31 03:34:46;;;;;;;6.10;5.50;;;;;;;0.72;70.54;94482.94;4992608;28;20081;-69
2020/12/31 03:37:12;;;;;;;5.85;5.22;;;;;;;0.68;70.56;94479.25;4992336;28;20042;-70
2020/12/31 03:39:37;;;;;;;6.55;5.93;;;;;;;0.57;70.81;94480.28;4992155;28;20056;-70
2020/12/31 03:42:03;;;;;;;6.30;5.45;;;;;;;0.51;70.75;94482.09;4992197;28;20042;-70
2020/12/31 03:44:28;;;;;;;7.95;6.45;;;;;;;0.39;70.92;94471.03;4992482;28;20060;-70
2020/12/31 03:46:53;;;;;;;7.15;5.30;;;;;;;0.38;70.85;94469.47;4993198;28;20034;-70
2020/12/31 03:49:19;;;;;;;6.22;5.63;;;;;;;0.34;71.18;94478.88;4992194;28;20042;-70
2020/12/31 03:51:44;;;;;;;8.10;6.00;;;;;;;0.22;71.48;94468.63;4992003;28;20050;-70
2020/12/31 03:54:10;;;;;;;10.07;6.28;;;;;;;0.21;71.33;94466.28;4991301;28;20082;-70
2020/12/31 03:56:36;;;;;;;8.50;6.10;;;;;;;0.14;71.55;94460.47;4992351;28;20544;-70
2020/12/31 03:59:05;;;;;;;10.10;6.40;;;;;;;0.00;71.74;94439.25;4992851;28;20031;-70
2020/12/31 04:01:32;;;;;;;6.07;5.47;;;;;;;0.15;71.56;94456.81;4990593;28;20109;-69
2020/12/31 04:03:59;;;;;;;6.20;5.60;;;;;;;0.10;71.91;94462.81;4992452;28;20069;-69
2020/12/31 04:06:25;;;;;;;9.20;6.70;;;;;;;-0.09;71.49;94438.94;4992219;28;20043;-70
2020/12/31 04:08:50;;;;;;;7.40;6.10;;;;;;;-0.03;71.83;94445.75;4991923;28;20040;-73
2020/12/31 04:11:15;;;;;;;8.73;6.40;;;;;;;-0.07;71.75;94455.16;4992381;28;20026;-71
2020/12/31 04:13:41;;;;;;;8.48;6.82;;;;;;;-0.09;72.16;94451.22;4992173;28;20042;-70
2020/12/31 04:16:06;;;;;;;9.48;6.90;;;;;;;-0.33;72.50;94428.09;4992021;28;20105;-71
2020/12/31 04:18:32;;;;;;;10.88;6.75;;;;;;;-0.27;72.22;94428.91;4991806;28;20064;-69
2020/12/31 04:20:57;;;;;;;8.63;6.90;;;;;;;-0.14;72.42;94452.00;4991915;28;20038;-71
2020/12/31 04:23:23;;;;;;;8.07;6.82;;;;;;;-0.33;72.34;94433.31;4991432;28;20077;-71
2020/12/31 04:25:49;;;;;;;9.30;7.22;;;;;;;-0.18;72.75;94444.91;5008703;28;20484;-71
2020/12/31 04:28:15;;;;;;;10.88;7.53;;;;;;;-0.23;73.13;94450.88;4991193;28;20122;-73
2020/12/31 04:30:40;;;;;;;10.38;7.70;;;;;;;-0.29;72.87;94437.00;4991442;28;20122;-70
2020/12/31 04:33:05;;;;;;;10.88;7.88;;;;;;;-0.24;72.97;94456.38;4991528;28;20054;-71
2020/12/31 04:35:31;;;;;;;8.57;7.53;;;;;;;-0.26;73.07;94440.94;4991727;28;20106;-71
2020/12/31 04:37:56;;;;;;;7.15;6.45;;;;;;;-0.28;73.20;94432.56;4993443;28;20089;-72
2020/12/31 04:40:22;;;;;;;8.45;7.22;;;;;;;-0.65;73.53;94396.03;4991211;28;20038;-71
2020/12/31 04:42:50;;;;;;;7.78;6.57;;;;;;;-0.41;73.45;94433.00;4991064;28;20038;-72
2020/12/31 04:45:19;;;;;;;8.63;7.65;;;;;;;-0.74;73.38;94374.81;5002552;23;20129;-58
2020/12/31 04:48:01;;;;;;;8.18;6.78;;;;;;;-0.40;73.63;94431.97;4989479;28;20038;-58
2020/12/31 04:50:28;;;;;;;;;;;;;;;-0.33;74.04;94435.16;4991244;28;20534;-58
2020/12/31 04:52:53;;;;;;;8.05;6.38;;;;;;;-0.64;73.89;94395.78;4991245;28;19972;-60
2020/12/31 04:55:21;;;;;;;11.23;6.93;;;;;;;-0.62;74.02;94404.13;4990900;28;20058;-59
2020/12/31 04:57:46;;;;;;;7.28;6.30;;;;;;;-0.49;74.15;94420.44;4990565;28;20045;-59
2020/12/31 05:00:12;;;;;;;8.27;6.28;;;;;;;-0.39;74.52;94436.94;4990347;28;20047;-58
2020/12/31 05:02:38;;;;;;;6.90;6.05;;;;;;;-0.39;74.29;94425.72;4990431;28;20488;-59
2020/12/31 05:05:03;;;;;;;7.28;6.55;;;;;;;-0.39;74.25;94447.41;4992475;28;20030;-60
2020/12/31 05:07:28;;;;;;;6.25;5.65;;;;;;;-0.48;74.30;94417.56;4990665;28;20077;-60
2020/12/31 05:10:10;;;;;;;8.32;6.78;;;;;;;-0.39;74.26;94447.41;4990247;28;20189;-60
2020/12/31 05:12:35;;;;;;;8.95;6.35;;;;;;;-0.54;74.31;94429.00;4988875;28;20049;-59
2020/12/31 05:15:01;;;;;;;8.43;6.03;;;;;;;-0.61;74.64;94416.19;4990504;28;20034;-59
2020/12/31 05:17:29;;;;;;;7.45;6.75;;;;;;;-0.49;74.46;94433.47;4990489;28;20022;-59
2020/12/31 05:19:54;;;;;;;7.10;6.30;;;;;;;-0.54;74.81;94424.56;4991879;28;20042;-58
2020/12/31 05:22:20;;;;;;;6.72;5.40;;;;;;;-0.52;74.44;94432.94;4990145;28;20042;-58
2020/12/31 05:24:51;;;;;;;8.57;6.68;;;;;;;-0.46;74.44;94440.81;4990232;28;20039;-59
2020/12/31 05:27:21;;;;;;;7.38;6.40;;;;;;;-0.47;74.17;94444.47;4990240;28;20432;-58
2020/12/31 05:30:01;;;;;;;7.32;5.95;;;;;;;-0.52;74.29;94435.53;4989742;28;20096;-58
2020/12/31 05:32:35;;;;;;;7.72;6.93;;;;;;;-0.50;74.22;94442.38;4989769;28;20621;-59
2020/12/31 05:35:09;;;;;;;8.95;6.28;;;;;;;-0.61;74.29;94433.69;4992055;28;20025;-59
2020/12/31 05:37:34;;;;;;;6.45;5.50;;;;;;;-0.63;74.86;94430.50;4990023;28;20444;-58
2020/12/31 05:40:08;;;;;;;8.23;5.60;;;;;;;-0.57;74.55;94438.13;4989626;28;20045;-60
2020/12/31 05:42:36;;;;;;;9.05;6.88;;;;;;;-0.71;74.49;94412.72;4989823;28;20081;-58
2020/12/31 05:45:13;;;;;;;8.63;6.63;;;;;;;-0.59;74.51;94437.59;4989933;28;20641;-59
2020/12/31 05:47:44;;;;;;;7.20;6.28;;;;;;;-0.59;74.52;94434.19;4989874;28;20045;-59
2020/12/31 05:50:16;;;;;;;8.18;6.53;;;;;;;-0.59;75.18;94439.44;4991333;28;20027;-59
2020/12/31 05:52:42;;;;;;;7.07;5.97;;;;;;;-0.72;75.19;94417.13;4989667;28;20185;-60
2020/12/31 05:55:08;;;;;;;6.50;5.90;;;;;;;-0.92;75.13;94385.66;4989857;28;20113;-60
2020/12/31 05:57:45;;;;;;;8.82;6.32;;;;;;;-0.70;75.16;94419.50;4989742;28;20030;-59
2020/12/31 06:00:38;;;;;;;6.65;5.80;;;;;;;-0.75;75.17;94420.25;4989322;28;20515;-58
2020/12/31 06:03:03;;;;;;;6.72;5.80;;;;;;;-0.63;75.44;94446.19;4987159;28;20039;-59
2020/12/31 06:05:29;;;;;;;6.95;5.63;;;;;;;-0.75;74.94;94427.31;4988285;28;20022;-59
2020/12/31 06:07:57;;;;;;;7.55;6.03;;;;;;;-0.88;75.05;94403.16;4991469;28;20026;-59
2020/12/31 06:10:25;;;;;;;6.38;5.70;;;;;;;-0.78;74.65;94415.53;4989211;28;20038;-59
2020/12/31 06:12:53;;;;;;;8.48;6.25;;;;;;;-0.72;75.35;94427.56;4989121;28;20049;-58
2020/12/31 06:15:33;;;;;;;6.50;5.78;;;;;;;-0.83;75.35;94421.50;4988070;28;20388;-60
2020/12/31 06:18:03;;;;;;;6.53;5.13;;;;;;;-0.97;74.93;94394.25;4989056;28;20034;-60
2020/12/31 06:20:31;;;;;;;9.05;5.85;;;;;;;-0.76;75.25;94430.97;4989058;28;20404;-60
2020/12/31 06:23:05;;;;;;;7.45;6.15;;;;;;;-0.73;75.05;94443.50;4991003;28;20602;-58
2020/12/31 06:25:48;;;;;;;6.60;5.90;;;;;;;-0.74;75.03;94434.88;4989053;28;20053;-61
2020/12/31 06:28:21;;;;;;;11.32;6.20;;;;;;;-0.83;75.50;94431.16;4988923;28;20035;-59
2020/12/31 06:30:52;;;;;;;7.03;6.22;;;;;;;-0.89;75.08;94424.31;4989410;28;20037;-60
2020/12/31 06:33:28;;;;;;;6.80;5.95;;;;;;;-0.80;74.86;94441.09;4989044;28;20098;-58
2020/12/31 06:35:56;;;;;;;8.50;5.13;;;;;;;-0.82;75.10;94441.38;4989294;28;20045;-60
2020/12/31 06:38:43;;;;;;;7.03;5.68;;;;;;;-0.83;75.01;94444.19;4988860;28;20030;-63
2020/12/31 06:41:30;;;;;;;6.68;5.93;;;;;;;-0.82;75.36;94440.56;4991013;28;20023;-59
2020/12/31 06:44:28;;;;;;;7.70;4.93;;;;;;;-0.86;75.10;94442.91;4989481;28;20034;-58
2020/12/31 06:46:54;;;;;;;6.50;5.40;;;;;;;-0.98;75.65;94426.59;4956806;28;20048;-59
2020/12/31 06:49:19;;;;;;;7.70;5.78;;;;;;;-0.92;75.28;94438.66;4988722;28;20166;-58
2020/12/31 06:51:44;;;;;;;5.90;5.25;;;;;;;-1.13;75.26;94416.81;4988723;28;20134;-59
2020/12/31 06:54:11;;;;;;;7.65;5.32;;;;;;;-1.13;75.31;94413.41;4987510;28;20073;-59
2020/12/31 06:56:50;;;;;;;9.40;6.25;;;;;;;-0.90;74.92;94447.03;4988990;28;20093;-59
2020/12/31 06:59:24;;;;;;;7.25;6.15;;;;;;;-0.90;75.60;94447.03;4991045;28;20494;-59
2020/12/31 07:01:50;;;;;;;7.60;6.22;;;;;;;-0.93;75.17;94441.50;4990485;28;20049;-59
2020/12/31 07:04:26;;;;;;;8.65;6.35;;;;;;;-0.99;75.30;94434.69;4988882;28;20042;-60
2020/12/31 07:06:51;;;;;;;9.00;5.72;;;;;;;-0.91;75.22;94449.91;4988778;28;20073;-59
2020/12/31 07:09:34;;;;;;;6.63;5.25;;;;;;;-0.92;74.97;94449.13;4989795;28;20030;-60
2020/12/31 07:12:05;;;;;;;7.82;5.95;;;;;;;-0.89;74.85;94448.59;4989997;28;20042;-58
2020/12/31 07:14:32;;;;;;;7.50;5.97;;;;;;;-0.98;74.41;94434.41;4990115;28;20084;-59
2020/12/31 07:17:00;;;;;;;6.05;5.20;;;;;;;-0.99;74.87;94430.25;4991894;28;20108;-60
2020/12/31 07:19:45;;;;;;;6.35;5.45;;;;;;;-0.82;74.65;94453.59;4989747;28;20042;-60
2020/12/31 07:22:10;;;;;;;6.63;5.75;;;;;;;-0.81;74.83;94453.38;4989441;28;20049;-62
2020/12/31 07:24:45;;;;;;;6.82;5.88;;;;;;;-0.93;74.37;94431.06;4989913;28;20038;-60
2020/12/31 07:27:26;;;;;;;8.75;5.90;;;;;;;-0.73;74.84;94449.50;4989771;28;20046;-61
2020/12/31 07:30:12;;;;;;;5.90;5.30;;;;;;;-0.80;74.57;94434.06;4990614;28;20054;-62
2020/12/31 07:32:50;;;;;;;6.60;5.10;;;;;;;-0.64;74.94;94455.84;4993372;28;20038;-61
2020/12/31 07:35:38;;;;;;;4.78;4.28;;;;;;;-0.64;75.06;94439.38;4995253;28;20026;-63
2020/12/31 07:38:06;;;;;;;8.02;5.30;;;;;;;-0.50;74.14;94447.59;4994080;28;20041;-62
2020/12/31 07:40:33;;;;;;;5.40;4.90;;;;;;;-0.70;73.96;94404.63;4992836;28;20145;-62
2020/12/31 07:42:59;;;;;;;5.93;4.40;;;;;;;-0.59;74.25;94421.94;4991780;28;20461;-62
2020/12/31 07:45:25;;;;;;;5.70;4.25;;;;;;;-0.53;74.16;94428.75;4991772;28;20077;-59
2020/12/31 07:47:55;;;;;;;4.57;4.05;;;;;;;-0.35;73.67;94442.47;4993227;28;20034;-60
2020/12/31 07:50:21;;;;;;;5.40;4.35;;;;;;;-0.34;73.71;94441.41;4993527;28;20037;-59
2020/12/31 07:52:47;;;;;;;5.03;4.30;;;;;;;-0.37;73.50;94426.22;4993170;28;20055;-61
2020/12/31 07:55:13;;;;;;;5.82;4.13;;;;;;;-0.33;73.57;94429.91;4991958;28;20038;-58
2020/12/31 07:57:39;;;;;;;5.40;4.40;;;;;;;-0.17;73.39;94439.41;4991280;28;20130;-58
2020/12/31 08:00:13;;;;;;;5.80;5.00;;;;;;;-0.12;73.08;94431.59;4992627;28;20129;-58
2020/12/31 08:02:44;;;;;;;6.15;4.72;;;;;;;-0.20;72.95;94415.63;4991709;28;20380;-59
2020/12/31 08:05:10;;;;;;;4.53;4.13;;;;;;;-0.16;73.12;94409.63;4993337;28;20023;-59
2020/12/31 08:07:36;;;;;;;6.47;5.00;;;;;;;-0.07;72.88;94415.16;4992836;28;20034;-58
2020/12/31 08:10:01;;;;;;;5.30;4.80;;;;;;;-0.10;72.66;94405.22;4992552;28;20096;-58
2020/12/31 08:12:27;;;;;;;6.28;4.70;;;;;;;0.07;72.50;94418.09;4992572;28;20440;-60
2020/12/31 08:14:52;;;;;;;7.00;4.82;;;;;;;0.01;72.67;94393.75;4992692;28;20038;-59
2020/12/31 08:17:17;;;;;;;6.00;4.43;;;;;;;0.26;72.42;94421.84;4992980;28;20088;-60
2020/12/31 08:19:43;;;;;;;4.80;4.32;;;;;;;0.24;72.39;94402.97;4992298;28;20562;-59
2020/12/31 08:22:19;;;;;;;5.97;4.72;;;;;;;0.38;72.53;94416.38;4992286;28;20038;-60
2020/12/31 08:24:49;;;;;;;5.63;4.35;;;;;;;0.35;72.15;94396.72;4992587;28;20061;-60
2020/12/31 08:27:20;;;;;;;6.57;4.05;;;;;;;0.20;72.03;94360.06;4990996;28;20037;-59
2020/12/31 08:29:46;;;;;;;4.85;4.40;;;;;;;0.60;72.01;94418.78;4991813;28;20140;-58
2020/12/31 08:32:22;;;;;;;4.97;3.97;;;;;;;0.61;71.69;94396.78;4994005;28;20027;-58
2020/12/31 08:34:52;;;;;;;4.20;3.80;;;;;;;0.73;71.55;94402.56;4992840;28;20066;-59
2020/12/31 08:37:17;;;;;;;4.20;3.67;;;;;;;0.91;71.21;94407.28;4990850;28;20045;-59
2020/12/31 08:39:42;;;;;;;4.18;3.78;;;;;;;0.93;70.82;94402.59;4991451;28;20038;-59
2020/12/31 08:42:14;;;;;;;4.90;3.80;;;;;;;0.89;70.56;94388.44;4991893;28;20034;-57
2020/12/31 08:44:43;;;;;;;3.70;3.23;;;;;;;0.96;70.26;94369.84;4992130;28;20435;-61
2020/12/31 08:47:23;;;;;;;4.43;3.53;;;;;;;1.32;69.81;94402.06;4993630;28;20262;-60
2020/12/31 08:49:51;;;;;;;3.72;3.15;;;;;;;1.24;69.79;94374.56;4992111;28;20092;-60
2020/12/31 08:52:16;;;;;;;3.50;2.92;;;;;;;1.29;69.05;94350.97;4990465;28;20038;-59
2020/12/31 08:54:41;;;;;;;3.08;2.78;;;;;;;1.45;68.37;94370.06;4990593;28;20041;-59
2020/12/31 08:57:16;;;;;;;2.80;2.60;;;;;;;1.81;67.90;94390.97;4991743;28;20145;-59
2020/12/31 08:59:42;;;;;;;2.45;2.20;;;;;;;1.84;66.85;94374.69;4991021;28;20038;-59
2020/12/31 09:02:11;;;;;;;2.58;1.95;;;;;;;1.86;66.23;94390.16;4992998;28;20113;-60
2020/12/31 09:04:36;;;;;;;2.67;2.10;;;;;;;2.11;66.53;94391.91;4991726;28;20074;-60
2020/12/31 09:07:09;;;;;;;2.70;2.08;;;;;;;2.22;65.40;94388.97;4991795;28;20077;-59
2020/12/31 09:09:34;;;;;;;2.47;2.20;;;;;;;2.35;64.94;94395.47;4991407;28;20181;-58
2020/12/31 09:12:03;;;;;;;2.70;2.35;;;;;;;2.40;65.04;94384.16;4989957;28;20109;-59
2020/12/31 09:14:30;;;;;;;2.20;2.00;;;;;;;2.49;64.73;94378.06;4991442;28;20080;-58
2020/12/31 09:16:55;;;;;;;3.17;2.50;;;;;;;2.59;64.42;94378.00;4993345;28;20476;-61
2020/12/31 09:19:21;;;;;;;2.78;2.45;;;;;;;2.58;63.92;94357.28;4990929;28;20045;-59
2020/12/31 09:21:46;;;;;;;2.35;1.95;;;;;;;2.64;62.68;94358.81;4991039;28;20038;-63
2020/12/31 09:24:12;;;;;;;1.80;1.70;;;;;;;2.08;62.08;94275.97;4991381;28;20034;-61
2020/12/31 09:26:38;;;;;;;1.85;1.70;;;;;;;2.84;61.58;94368.41;4991349;28;20416;-59
2020/12/31 09:29:08;;;;;;;2.22;1.90;;;;;;;2.79;60.75;94350.06;4992141;28;20030;-60
2020/12/31 09:31:35;;;;;;;2.28;2.08;;;;;;;2.81;60.93;94342.66;4989407;28;20043;-60
2020/12/31 09:34:01;;;;;;;1.95;1.77;;;;;;;2.87;61.10;94346.84;4990801;28;20121;-60
2020/12/31 09:36:26;;;;;;;2.17;1.98;;;;;;;3.01;60.87;94360.91;4990819;28;20070;-61
2020/12/31 09:38:52;;;;;;;2.42;2.05;;;;;;;3.04;60.93;94355.09;4990704;28;20034;-60
2020/12/31 09:41:18;;;;;;;2.30;2.05;;;;;;;2.98;60.29;94350.97;4992516;28;20503;-60
2020/12/31 09:43:44;;;;;;;1.88;1.77;;;;;;;2.86;59.73;94329.50;4989557;28;20043;-61
2020/12/31 09:46:09;;;;;;;2.13;1.92;;;;;;;3.13;59.46;94360.56;4991112;28;20049;-61
2020/12/31 09:48:35;;;;;;;2.05;1.80;;;;;;;3.21;60.21;94367.06;4989364;28;20104;-61
2020/12/31 09:51:01;;;;;;;2.17;2.00;;;;;;;3.19;59.68;94354.19;4988967;28;20424;-60
2020/12/31 09:53:26;;;;;;;2.45;2.00;;;;;;;3.31;59.55;94357.22;4990289;28;20516;-60
2020/12/31 09:55:52;;;;;;;2.20;1.65;;;;;;;3.38;59.59;94351.69;4992459;28;20154;-60
2020/12/31 09:58:17;;;;;;;2.10;1.90;;;;;;;3.47;59.11;94349.19;4989952;28;20125;-60
2020/12/31 10:00:42;;;;;;;4.88;2.13;;;;;;;3.49;59.13;94333.94;4990564;28;20051;-60
2020/12/31 10:03:08;;;;;;;2.65;2.10;;;;;;;3.22;58.12;94297.66;4990247;28;20556;-61
2020/12/31 10:05:33;;;;;;;2.08;1.90;;;;;;;3.26;58.65;94338.88;4990514;28;20073;-60
2020/12/31 10:07:58;;;;;;;2.10;1.90;;;;;;;3.19;57.49;94291.13;4991034;28;20805;-60
2020/12/31 10:10:24;;;;;;;3.13;2.03;;;;;;;3.48;58.11;94308.69;4990177;28;20027;-60
2020/12/31 10:12:49;;;;;;;2.47;2.28;;;;;;;3.51;57.58;94303.66;4990181;28;20034;-61
2020/12/31 10:15:14;;;;;;;2.83;2.10;;;;;;;3.53;57.58;94298.13;4990388;28;20034;-61
2020/12/31 10:17:39;;;;;;;2.30;2.10;;;;;;;3.71;57.28;94310.56;4990278;28;20132;-60
2020/12/31 10:20:05;;;;;;;2.47;2.28;;;;;;;3.66;57.24;94294.84;4991946;28;20030;-60
2020/12/31 10:22:31;;;;;;;2.35;1.98;;;;;;;3.61;57.16;94269.38;4990125;28;20153;-61
2020/12/31 10:24:56;;;;;;;2.88;2.33;;;;;;;3.60;56.28;94285.44;4990193;28;20039;-60
2020/12/31 10:27:22;;;;;;;2.47;2.13;;;;;;;3.79;56.53;94290.75;4990008;28;20133;-61
2020/12/31 10:29:47;;;;;;;2.55;2.10;;;;;;;3.74;56.14;94293.44;4989566;28;20057;-60
2020/12/31 10:32:13;;;;;;;2.40;2.20;;;;;;;3.74;56.39;94256.63;4991659;28;20041;-62
2020/12/31 10:34:38;;;;;;;5.13;2.60;;;;;;;4.10;56.47;94289.31;4990187;28;20489;-61
2020/12/31 10:37:04;;;;;;;2.45;2.03;;;;;;;3.94;55.76;94253.72;4989960;28;20037;-61
2020/12/31 10:39:29;;;;;;;2.53;2.30;;;;;;;4.10;56.28;94246.41;4989612;28;20547;-61
2020/12/31 10:41:54;;;;;;;4.43;2.65;;;;;;;4.20;55.59;94261.25;4989779;28;20038;-61
2020/12/31 10:44:20;;;;;;;2.75;2.30;;;;;;;4.16;55.40;94250.53;4991999;28;20034;-62
2020/12/31 10:46:45;;;;;;;2.70;2.10;;;;;;;4.39;54.64;94277.84;4988855;28;20543;-62
2020/12/31 10:49:11;;;;;;;3.35;2.58;;;;;;;4.50;54.56;94278.47;4989828;28;20370;-60
2020/12/31 10:51:40;;;;;;;2.58;2.38;;;;;;;4.51;53.87;94261.63;4996175;23;20049;-67
2020/12/31 10:54:05;;;;;;;2.75;2.50;;;;;;;4.53;53.83;94254.19;4981784;28;20476;-68
2020/12/31 10:56:32;;;;;;;2.55;2.35;;;;;;;4.34;53.00;94241.06;4990346;28;20045;-68
2020/12/31 10:58:58;;;;;;;2.78;2.22;;;;;;;4.49;53.19;94253.22;4988437;28;20046;-68
2020/12/31 11:01:24;;;;;;;3.05;2.75;;;;;;;4.59;53.50;94248.56;4969459;28;20047;-70
2020/12/31 11:03:49;;;;;;;2.60;2.40;;;;;;;4.65;53.34;94244.00;4973303;28;20390;-68
2020/12/31 11:06:20;;;;;;;3.03;2.40;;;;;;;4.67;53.21;94242.66;4974471;28;20073;-67
2020/12/31 11:08:45;;;;;;;3.10;2.65;;;;;;;4.65;53.16;94236.88;4973072;28;20381;-67
2020/12/31 11:11:24;;;;;;;2.50;2.30;;;;;;;4.68;53.26;94236.31;4975924;28;20105;-67
2020/12/31 11:13:50;;;;;;;2.80;2.35;;;;;;;4.76;53.41;94231.44;4974723;28;20054;-67
2020/12/31 11:16:15;;;;;;;2.90;2.70;;;;;;;4.74;53.45;94215.16;4974102;28;20039;-67
2020/12/31 11:18:41;;;;;;;3.50;2.33;;;;;;;4.75;53.34;94216.69;4973744;28;20149;-68
2020/12/31 11:21:07;;;;;;;2.47;2.20;;;;;;;4.77;52.76;94217.22;4974171;28;20133;-66
2020/12/31 11:23:32;;;;;;;2.03;1.73;;;;;;;4.87;52.59;94201.22;4973675;28;20075;-67
2020/12/31 11:25:58;;;;;;;3.22;2.13;;;;;;;4.98;52.45;94202.59;4976012;28;20031;-68
2020/12/31 11:28:23;;;;;;;3.00;2.08;;;;;;;5.08;52.79;94197.16;4973178;28;20066;-67
2020/12/31 11:30:49;;;;;;;4.40;2.30;;;;;;;5.20;51.61;94192.16;4973846;28;20042;-66
2020/12/31 11:33:14;;;;;;;2.50;2.30;;;;;;;5.29;50.87;94191.50;4973658;28;20089;-66
2020/12/31 11:35:39;;;;;;;2.15;1.95;;;;;;;5.42;50.46;94194.09;4972691;28;20035;-77
2020/12/31 11:38:05;;;;;;;2.97;1.95;;;;;;;5.50;50.45;94199.78;4975749;28;20066;-65
2020/12/31 11:40:30;;;;;;;2.65;2.45;;;;;;;5.46;50.07;94181.13;4972126;28;20043;-66
2020/12/31 11:42:55;;;;;;;2.88;2.08;;;;;;;5.57;50.48;94166.66;4973214;28;20043;-66